createdAt,value
2022-08-09T00:00:23.406Z,50.88
2022-08-09T00:02:52.234Z,51.04
2022-08-09T00:06:19.003Z,51.10
2022-08-09T00:08:12.963Z,50.92
2022-08-09T00:10:59.365Z,51.15
2022-08-09T00:13:28.281Z,50.52
2022-08-09T00:16:02.773Z,51.03
2022-08-09T00:18:35.629Z,50.90
2022-08-09T00:21:05.027Z,50.42
2022-08-09T00:23:56.009Z,50.66
2022-08-09T00:26:32.862Z,50.27
2022-08-09T00:29:02.351Z,50.81
2022-08-09T00:31:59.387Z,50.31
2022-08-09T00:34:19.327Z,50.25
2022-08-09T00:36:48.105Z,50.42
2022-08-09T00:40:12.230Z,50.26
2022-08-09T00:44:19.182Z,50.42
2022-08-09T00:44:55.010Z,50.46
2022-08-09T00:47:24.641Z,50.64
2022-08-09T00:49:54.794Z,50.33
2022-08-09T00:52:30.149Z,50.23
2022-08-09T00:55:01.422Z,49.99
2022-08-09T00:57:34.544Z,50.21
2022-08-09T01:00:22.028Z,50.03
2022-08-09T01:02:52.955Z,50.06
2022-08-09T01:05:53.312Z,50.18
2022-08-09T01:08:16.443Z,49.91
2022-08-09T01:10:51.295Z,50.04
2022-08-09T01:13:22.138Z,50.20
2022-08-09T01:15:52.634Z,50.05
2022-08-09T01:18:30.429Z,49.84
2022-08-09T01:21:07.230Z,50.07
2022-08-09T01:24:03.222Z,49.89
2022-08-09T01:26:52.786Z,49.59
2022-08-09T01:29:41.283Z,49.53
2022-08-09T01:32:43.867Z,49.72
2022-08-09T01:35:29.148Z,49.68
2022-08-09T01:38:07.986Z,49.78
2022-08-09T01:40:39.225Z,49.49
2022-08-09T01:43:09.342Z,49.74
2022-08-09T01:45:44.686Z,49.56
2022-08-09T01:48:15.488Z,49.63
2022-08-09T01:50:48.221Z,49.54
2022-08-09T01:53:19.338Z,49.61
2022-08-09T01:55:48.335Z,49.53
2022-08-09T01:58:17.852Z,49.50
2022-08-09T02:00:50.320Z,49.26
2022-08-09T02:03:18.814Z,49.34
2022-08-09T02:06:04.150Z,49.56
2022-08-09T02:08:57.212Z,49.25
2022-08-09T02:11:23.704Z,49.15
2022-08-09T02:14:06.280Z,49.41
2022-08-09T02:16:59.388Z,49.31
2022-08-09T02:19:25.027Z,48.97
2022-08-09T02:22:11.075Z,49.32
2022-08-09T02:24:39.337Z,49.25
2022-08-09T02:27:09.635Z,49.17
2022-08-09T02:29:45.400Z,49.25
2022-08-09T02:32:16.688Z,48.93
2022-08-09T02:34:51.854Z,49.01
2022-08-09T02:37:24.836Z,49.10
2022-08-09T02:40:03.460Z,49.08
2022-08-09T02:42:33.070Z,48.84
2022-08-09T02:45:05.122Z,49.00
2022-08-09T02:47:57.963Z,48.68
2022-08-09T02:50:24.580Z,48.40
2022-08-09T02:52:56.292Z,48.75
2022-08-09T02:55:24.842Z,48.81
2022-08-09T02:58:32.958Z,48.68
2022-08-09T03:01:04.474Z,48.68
2022-08-09T03:04:05.765Z,48.65
2022-08-09T03:06:21.550Z,48.69
2022-08-09T03:08:49.776Z,48.62
2022-08-09T03:12:04.442Z,48.68
2022-08-09T03:14:10.340Z,48.40
2022-08-09T03:16:44.773Z,48.44
2022-08-09T03:19:14.045Z,48.52
2022-08-09T03:22:03.299Z,48.40
2022-08-09T03:24:52.468Z,47.93
2022-08-09T03:27:21.517Z,48.28
2022-08-09T03:29:58.252Z,48.27
2022-08-09T03:32:31.798Z,47.98
2022-08-09T03:35:00.644Z,48.35
2022-08-09T03:37:55.857Z,48.35
2022-08-09T03:40:18.144Z,48.17
2022-08-09T03:42:46.825Z,48.07
2022-08-09T03:45:15.715Z,47.97
2022-08-09T03:47:46.699Z,48.03
2022-08-09T03:50:18.856Z,48.00
2022-08-09T03:52:57.601Z,47.93
2022-08-09T03:55:26.425Z,47.99
2022-08-09T03:58:06.533Z,47.90
2022-08-09T04:00:44.489Z,47.48
2022-08-09T04:03:19.834Z,47.46
2022-08-09T04:06:04.409Z,47.86
2022-08-09T04:08:33.177Z,47.60
2022-08-09T04:11:01.968Z,47.73
2022-08-09T04:14:36.929Z,47.68
2022-08-09T04:16:21.278Z,47.31
2022-08-09T04:18:51.412Z,47.68
2022-08-09T04:21:19.600Z,47.34
2022-08-09T04:23:54.220Z,47.54
2022-08-09T04:26:34.995Z,47.61
2022-08-09T04:29:10.945Z,47.39
2022-08-09T04:31:46.842Z,47.31
2022-08-09T04:34:19.108Z,47.45
2022-08-09T04:36:58.738Z,47.21
2022-08-09T04:39:31.286Z,47.30
2022-08-09T04:41:59.700Z,47.18
2022-08-09T04:44:28.617Z,47.23
2022-08-09T04:47:04.355Z,47.23
2022-08-09T04:49:52.805Z,47.23
2022-08-09T04:52:27.322Z,47.25
2022-08-09T04:55:00.761Z,47.11
2022-08-09T04:57:54.313Z,47.17
2022-08-09T05:00:17.947Z,47.16
2022-08-09T05:02:52.690Z,47.29
2022-08-09T05:05:32.331Z,47.14
2022-08-09T05:08:14.712Z,47.25
2022-08-09T05:10:43.293Z,47.22
2022-08-09T05:13:12.680Z,47.14
2022-08-09T05:15:52.154Z,47.45
2022-08-09T05:18:39.585Z,46.95
2022-08-09T05:21:23.166Z,46.14
2022-08-09T05:23:59.545Z,46.27
2022-08-09T05:26:45.671Z,46.23
2022-08-09T05:29:21.845Z,46.37
2022-08-09T05:31:56.233Z,46.34
2022-08-09T05:34:30.156Z,46.35
2022-08-09T05:37:05.311Z,46.48
2022-08-09T05:39:43.845Z,46.49
2022-08-09T05:42:20.958Z,46.31
2022-08-09T05:44:59.209Z,46.21
2022-08-09T05:47:30.365Z,46.38
2022-08-09T05:50:25.853Z,46.47
2022-08-09T05:52:53.339Z,46.42
2022-08-09T05:55:23.950Z,46.41
2022-08-09T05:57:57.052Z,46.57
2022-08-09T06:00:26.884Z,46.43
2022-08-09T06:02:57.473Z,46.62
2022-08-09T06:05:49.979Z,46.66
2022-08-09T06:08:19.006Z,46.51
2022-08-09T06:10:48.313Z,46.60
2022-08-09T06:13:18.753Z,46.32
2022-08-09T06:15:51.539Z,45.72
2022-08-09T06:18:24.808Z,46.00
2022-08-09T06:20:54.727Z,45.97
2022-08-09T06:23:57.582Z,45.99
2022-08-09T06:26:20.234Z,45.90
2022-08-09T06:28:50.355Z,46.48
2022-08-09T06:31:30.458Z,46.49
2022-08-09T06:33:59.960Z,46.62
2022-08-09T06:36:29.979Z,46.52
2022-08-09T06:38:59.567Z,46.56
2022-08-09T06:42:08.041Z,46.88
2022-08-09T06:44:19.379Z,46.86
2022-08-09T06:46:55.318Z,46.81
2022-08-09T06:49:44.784Z,46.86
2022-08-09T06:52:15.927Z,47.05
2022-08-09T06:54:45.661Z,46.93
2022-08-09T06:57:14.184Z,47.08
2022-08-09T07:00:51.632Z,47.15
2022-08-09T07:02:32.021Z,47.13
2022-08-09T07:05:00.619Z,46.91
2022-08-09T07:08:00.551Z,47.30
2022-08-09T07:10:22.485Z,47.22
2022-08-09T07:12:57.377Z,47.47
2022-08-09T07:16:38.721Z,47.55
2022-08-09T07:18:14.916Z,47.54
2022-08-09T07:20:44.464Z,47.53
2022-08-09T07:23:19.118Z,47.68
2022-08-09T07:25:52.561Z,47.55
2022-08-09T07:28:31.192Z,47.56
2022-08-09T07:31:04.788Z,47.66
2022-08-09T07:33:52.051Z,47.86
2022-08-09T07:36:22.119Z,47.73
2022-08-09T07:38:58.417Z,47.88
2022-08-09T07:41:32.917Z,47.91
2022-08-09T07:44:06.912Z,48.19
2022-08-09T07:46:35.057Z,47.96
2022-08-09T07:49:05.644Z,48.46
2022-08-09T07:52:05.012Z,48.41
2022-08-09T07:54:30.960Z,48.66
2022-08-09T07:57:00.620Z,48.56
2022-08-09T07:59:34.549Z,48.57
2022-08-09T08:02:19.925Z,48.90
2022-08-09T08:04:49.359Z,48.95
2022-08-09T08:08:43.437Z,48.97
2022-08-09T08:10:11.382Z,48.88
2022-08-09T08:12:43.674Z,49.05
2022-08-09T08:15:13.854Z,48.94
2022-08-09T08:17:54.106Z,49.24
2022-08-09T08:20:28.780Z,49.13
2022-08-09T08:22:58.746Z,49.18
2022-08-09T08:25:43.788Z,49.42
2022-08-09T08:28:15.595Z,49.47
2022-08-09T08:30:46.827Z,49.41
2022-08-09T08:33:24.164Z,49.41
2022-08-09T08:36:00.226Z,49.55
2022-08-09T08:38:29.486Z,49.70
2022-08-09T08:40:58.129Z,49.53
2022-08-09T08:43:28.070Z,50.16
2022-08-09T08:46:00.064Z,49.87
2022-08-09T08:48:38.117Z,49.92
2022-08-09T08:51:19.265Z,50.07
2022-08-09T08:54:03.926Z,50.11
2022-08-09T08:56:35.611Z,49.92
2022-08-09T08:59:07.640Z,49.85
2022-08-09T09:01:53.104Z,50.39
2022-08-09T09:04:26.958Z,50.25
2022-08-09T09:06:56.905Z,50.41
2022-08-09T09:09:58.028Z,50.26
2022-08-09T09:12:16.635Z,49.90
2022-08-09T09:14:46.888Z,50.28
2022-08-09T09:17:16.405Z,49.95
2022-08-09T09:19:44.834Z,49.69
2022-08-09T09:22:15.747Z,49.86
2022-08-09T09:24:45.140Z,49.78
2022-08-09T09:28:03.498Z,49.75
2022-08-09T09:30:41.005Z,49.60
2022-08-09T09:33:16.783Z,49.74
2022-08-09T09:36:01.486Z,49.42
2022-08-09T09:38:41.747Z,49.75
2022-08-09T09:41:11.145Z,49.40
2022-08-09T09:43:41.291Z,48.89
2022-08-09T09:46:52.037Z,48.90
2022-08-09T09:49:32.015Z,48.82
2022-08-09T09:52:16.736Z,48.90
2022-08-09T09:55:02.325Z,48.67
2022-08-09T09:58:02.605Z,48.49
2022-08-09T10:00:26.440Z,48.60
2022-08-09T10:02:56.543Z,48.51
2022-08-09T10:05:27.108Z,48.60
2022-08-09T10:08:28.426Z,48.38
2022-08-09T10:10:56.898Z,48.69
2022-08-09T10:13:43.150Z,48.37
2022-08-09T10:16:57.631Z,48.51
2022-08-09T10:19:04.244Z,48.21
2022-08-09T10:21:32.547Z,48.18
2022-08-09T10:24:03.877Z,48.29
2022-08-09T10:26:32.388Z,48.03
2022-08-09T10:29:20.967Z,47.98
2022-08-09T10:34:40.461Z,47.99
2022-08-09T10:37:09.869Z,47.79
2022-08-09T10:39:49.241Z,47.58
2022-08-09T10:42:18.628Z,47.63
2022-08-09T10:44:47.639Z,47.51
2022-08-09T10:48:12.099Z,47.53
2022-08-09T10:50:30.740Z,47.57
2022-08-09T10:53:10.091Z,47.76
2022-08-09T10:55:58.134Z,47.34
2022-08-09T10:58:31.022Z,46.90
2022-08-09T11:03:03.057Z,47.57
2022-08-09T11:04:27.973Z,47.12
2022-08-09T11:07:55.017Z,47.39
2022-08-09T11:10:17.457Z,47.76
2022-08-09T11:13:14.110Z,47.63
2022-08-09T11:16:33.437Z,47.52
2022-08-09T11:19:09.662Z,47.88
2022-08-09T11:21:56.913Z,48.25
2022-08-09T11:24:58.019Z,48.41
2022-08-09T11:28:03.580Z,48.78
2022-08-09T11:30:34.676Z,48.98
2022-08-09T11:33:05.711Z,48.92
2022-08-09T11:35:49.824Z,48.96
2022-08-09T11:38:19.406Z,49.01
2022-08-09T11:40:52.837Z,49.03
2022-08-09T11:43:42.042Z,49.20
2022-08-09T11:46:10.525Z,49.03
2022-08-09T11:48:48.375Z,49.16
2022-08-09T11:52:53.989Z,49.21
2022-08-09T11:54:28.173Z,49.25
2022-08-09T11:58:00.823Z,49.24
2022-08-09T12:00:29.180Z,49.15
2022-08-09T12:03:00.210Z,49.30
2022-08-09T12:05:48.527Z,49.18
2022-08-09T12:08:21.477Z,48.94
2022-08-09T12:10:52.830Z,49.24
2022-08-09T12:14:07.263Z,48.96
2022-08-09T12:16:37.832Z,48.91
2022-08-09T12:19:09.343Z,48.68
2022-08-09T12:21:39.237Z,48.64
2022-08-09T12:24:21.740Z,48.68
2022-08-09T12:28:58.591Z,48.20
2022-08-09T12:29:44.586Z,48.28
2022-08-09T12:32:26.479Z,48.54
2022-08-09T12:35:00.022Z,48.05
2022-08-09T12:37:44.055Z,48.14
2022-08-09T12:40:20.453Z,48.00
2022-08-09T12:42:50.653Z,47.77
2022-08-09T12:45:32.703Z,47.60
2022-08-09T12:48:08.051Z,47.49
2022-08-09T12:50:48.857Z,47.74
2022-08-09T12:53:33.434Z,47.59
2022-08-09T12:56:12.574Z,47.72
2022-08-09T12:58:50.656Z,47.35
2022-08-09T13:01:28.356Z,47.14
2022-08-09T13:03:59.417Z,46.97
2022-08-09T13:06:34.807Z,46.92
2022-08-09T13:09:08.817Z,46.94
2022-08-09T13:11:42.476Z,46.98
2022-08-09T13:14:41.102Z,47.11
2022-08-09T13:17:04.461Z,46.65
2022-08-09T13:20:06.776Z,46.62
2022-08-09T13:22:45.602Z,46.88
2022-08-09T13:25:11.948Z,46.63
2022-08-09T13:27:55.029Z,46.60
2022-08-09T13:30:50.841Z,46.36
2022-08-09T13:33:22.687Z,45.93
2022-08-09T13:36:24.761Z,45.66
2022-08-09T13:38:57.588Z,45.58
2022-08-09T13:41:58.963Z,45.42
2022-08-09T13:44:16.836Z,45.59
2022-08-09T13:47:29.405Z,45.71
2022-08-09T13:49:39.850Z,45.65
2022-08-09T13:52:24.552Z,45.75
2022-08-09T13:54:59.333Z,46.22
2022-08-09T13:57:36.596Z,45.57
2022-08-09T14:00:12.759Z,46.08
2022-08-09T14:03:04.171Z,45.92
2022-08-09T14:06:00.618Z,45.95
2022-08-09T14:08:20.800Z,46.21
2022-08-09T14:10:52.186Z,46.22
2022-08-09T14:14:16.450Z,46.31
2022-08-09T14:16:14.671Z,46.27
2022-08-09T14:18:45.898Z,46.73
2022-08-09T14:21:20.713Z,46.55
2022-08-09T14:23:54.156Z,46.45
2022-08-09T14:26:25.301Z,46.35
2022-08-09T14:28:53.772Z,46.56
2022-08-09T14:31:23.538Z,46.35
2022-08-09T14:34:04.209Z,47.20
2022-08-09T14:36:42.893Z,47.09
2022-08-09T14:39:12.187Z,46.75
2022-08-09T14:41:42.021Z,46.63
2022-08-09T14:44:11.434Z,46.58
2022-08-09T14:47:04.652Z,46.49
2022-08-09T14:49:28.865Z,46.69
2022-08-09T14:52:04.123Z,46.70
2022-08-09T14:54:34.056Z,46.55
2022-08-09T14:57:02.320Z,46.47
2022-08-09T14:59:31.651Z,46.72
2022-08-09T15:02:06.872Z,46.75
2022-08-09T15:04:37.169Z,47.37
2022-08-09T15:07:10.171Z,46.92
2022-08-09T15:10:04.845Z,47.04
2022-08-09T15:12:26.780Z,47.48
2022-08-09T15:14:55.814Z,47.49
2022-08-09T15:17:23.956Z,47.23
2022-08-09T15:20:02.224Z,47.56
2022-08-09T15:22:32.920Z,47.28
2022-08-09T15:25:03.771Z,47.59
2022-08-09T15:27:47.454Z,47.69
2022-08-09T15:30:59.435Z,47.64
2022-08-09T15:33:08.666Z,47.33
2022-08-09T15:35:44.957Z,47.58
2022-08-09T15:38:33.883Z,47.41
2022-08-09T15:41:09.345Z,46.99
2022-08-09T15:43:39.661Z,47.16
2022-08-09T15:46:31.903Z,46.77
2022-08-09T15:49:20.900Z,46.62
2022-08-09T15:52:03.091Z,46.36
2022-08-09T15:54:44.664Z,46.34
2022-08-09T15:57:18.947Z,45.70
2022-08-09T15:59:52.391Z,45.80
2022-08-09T16:02:27.043Z,45.68
2022-08-09T16:04:55.673Z,45.60
2022-08-09T16:07:25.713Z,45.60
2022-08-09T16:10:04.232Z,45.25
2022-08-09T16:12:33.915Z,45.36
2022-08-09T16:15:04.943Z,45.70
2022-08-09T16:17:54.371Z,45.07
2022-08-09T16:20:27.632Z,44.94
2022-08-09T16:22:58.583Z,44.98
2022-08-09T16:25:40.297Z,44.97
2022-08-09T16:28:12.098Z,44.90
2022-08-09T16:30:44.750Z,45.00
2022-08-09T16:33:16.061Z,44.82
2022-08-09T16:35:57.270Z,44.60
2022-08-09T16:38:28.130Z,44.66
2022-08-09T16:40:59.437Z,44.15
2022-08-09T16:43:32.648Z,44.14
2022-08-09T16:46:00.772Z,44.38
2022-08-09T16:48:40.668Z,44.58
2022-08-09T16:51:18.937Z,44.31
2022-08-09T16:54:25.241Z,44.38
2022-08-09T16:56:37.135Z,44.28
2022-08-09T16:59:17.223Z,44.22
2022-08-09T17:01:51.077Z,44.63
2022-08-09T17:04:26.148Z,44.82
2022-08-09T17:08:45.246Z,44.71
2022-08-09T17:09:47.275Z,44.44
2022-08-09T17:12:19.489Z,44.22
2022-08-09T17:14:49.920Z,44.49
2022-08-09T17:17:27.341Z,44.53
2022-08-09T17:20:28.841Z,44.36
2022-08-09T17:22:52.217Z,44.31
2022-08-09T17:25:22.159Z,44.48
2022-08-09T17:27:54.647Z,44.60
2022-08-09T17:30:25.917Z,44.34
2022-08-09T17:33:00.932Z,44.04
2022-08-09T17:35:34.484Z,44.16
2022-08-09T17:38:13.271Z,44.31
2022-08-09T17:40:52.437Z,44.47
2022-08-09T17:43:33.699Z,44.82
2022-08-09T17:46:06.911Z,44.62
2022-08-09T17:48:38.618Z,44.71
2022-08-09T17:51:09.836Z,44.60
2022-08-09T17:53:47.867Z,44.76
2022-08-09T17:56:19.999Z,44.68
2022-08-09T17:58:50.323Z,44.76
2022-08-09T18:01:22.560Z,44.61
2022-08-09T18:03:52.169Z,45.04
2022-08-09T18:06:30.693Z,44.65
2022-08-09T18:09:03.422Z,44.90
2022-08-09T18:12:05.741Z,44.56
2022-08-09T18:14:23.517Z,44.65
2022-08-09T18:16:53.444Z,44.78
2022-08-09T18:20:56.083Z,44.60
2022-08-09T18:22:13.184Z,44.90
2022-08-09T18:24:45.582Z,45.12
2022-08-09T18:27:18.896Z,45.00
2022-08-09T18:30:40.268Z,44.70
2022-08-09T18:32:54.594Z,44.91
2022-08-09T18:36:00.119Z,45.28
2022-08-09T18:38:12.628Z,45.34
2022-08-09T18:40:40.865Z,45.14
2022-08-09T18:43:09.696Z,45.40
2022-08-09T18:46:51.309Z,45.08
2022-08-09T18:48:30.370Z,45.51
2022-08-09T18:51:01.298Z,45.20
2022-08-09T18:53:56.544Z,44.99
2022-08-09T18:56:19.925Z,44.97
2022-08-09T18:58:55.269Z,44.62
2022-08-09T19:01:25.647Z,44.77
2022-08-09T19:04:06.475Z,44.75
2022-08-09T19:06:38.388Z,44.67
2022-08-09T19:09:07.448Z,44.67
2022-08-09T19:11:38.343Z,44.42
2022-08-09T19:14:07.017Z,44.54
2022-08-09T19:16:37.834Z,44.60
2022-08-09T19:19:23.582Z,44.52
2022-08-09T19:22:06.572Z,44.69
2022-08-09T19:25:11.481Z,44.80
2022-08-09T19:27:23.960Z,44.88
2022-08-09T19:30:22.730Z,44.89
2022-08-09T19:32:46.564Z,44.98
2022-08-09T19:35:26.216Z,45.29
2022-08-09T19:37:57.603Z,45.07
2022-08-09T19:40:34.498Z,45.23
2022-08-09T19:43:05.333Z,45.24
2022-08-09T19:45:40.543Z,45.43
2022-08-09T19:48:11.814Z,45.43
2022-08-09T19:50:49.157Z,45.71
2022-08-09T19:53:20.901Z,45.63
2022-08-09T19:56:01.952Z,45.80
2022-08-09T19:58:34.167Z,46.13
2022-08-09T20:01:02.380Z,46.07
2022-08-09T20:04:11.717Z,45.89
2022-08-09T20:06:29.668Z,46.19
2022-08-09T20:08:59.676Z,46.46
2022-08-09T20:11:42.854Z,46.45
2022-08-09T20:14:17.549Z,46.48
2022-08-09T20:16:50.158Z,46.48
2022-08-09T20:19:48.386Z,46.26
2022-08-09T20:22:14.524Z,46.71
2022-08-09T20:24:53.511Z,46.75
2022-08-09T20:27:22.700Z,47.02
2022-08-09T20:29:50.764Z,46.51
2022-08-09T20:32:29.796Z,46.83
2022-08-09T20:35:01.355Z,47.00
2022-08-09T20:38:18.573Z,47.42
2022-08-09T20:40:26.475Z,46.88
2022-08-09T20:43:00.366Z,47.14
2022-08-09T20:45:59.138Z,47.19
2022-08-09T20:48:31.385Z,47.22
2022-08-09T20:51:02.894Z,47.78
2022-08-09T20:53:37.011Z,47.79
2022-08-09T20:56:19.862Z,47.69
2022-08-09T20:58:50.316Z,46.23
2022-08-09T21:01:34.767Z,45.48
2022-08-09T21:05:49.165Z,45.27
2022-08-09T21:06:56.881Z,45.27
2022-08-09T21:09:41.796Z,44.90
2022-08-09T21:14:48.345Z,44.96
2022-08-09T21:18:11.449Z,44.89
2022-08-09T21:20:22.750Z,45.21
2022-08-09T21:22:55.769Z,45.31
2022-08-09T21:25:43.794Z,44.89
2022-08-09T21:28:15.979Z,44.91
2022-08-09T21:30:44.704Z,44.80
2022-08-09T21:33:12.874Z,44.84
2022-08-09T21:35:51.046Z,44.55
2022-08-09T21:38:31.339Z,44.59
2022-08-09T21:40:59.846Z,44.57
2022-08-09T21:43:56.863Z,44.73
2022-08-09T21:46:16.405Z,44.65
2022-08-09T21:48:49.391Z,44.68
2022-08-09T21:51:24.180Z,44.65
2022-08-09T21:54:05.632Z,44.62
2022-08-09T21:56:44.464Z,44.38
2022-08-09T21:59:23.351Z,44.68
2022-08-09T22:01:58.991Z,44.67
2022-08-09T22:04:55.517Z,44.64
2022-08-09T22:07:35.371Z,44.65
2022-08-09T22:10:07.387Z,44.54
2022-08-09T22:12:35.672Z,44.82
2022-08-09T22:15:07.263Z,44.63
2022-08-09T22:17:46.223Z,44.59
2022-08-09T22:20:16.969Z,44.60
2022-08-09T22:22:50.681Z,44.60
2022-08-09T22:26:07.383Z,44.58
2022-08-09T22:28:08.310Z,44.36
2022-08-09T22:30:36.649Z,44.38
2022-08-09T22:33:09.404Z,44.39
2022-08-09T22:36:03.321Z,44.31
2022-08-09T22:38:26.412Z,44.40
2022-08-09T22:40:57.850Z,44.41
2022-08-09T22:44:01.472Z,43.92
2022-08-09T22:48:11.847Z,44.14
2022-08-09T22:49:09.532Z,44.28
2022-08-09T22:51:39.452Z,44.28
2022-08-09T22:54:11.677Z,44.33
2022-08-09T22:56:41.552Z,44.16
2022-08-09T22:59:55.858Z,44.26
2022-08-09T23:01:58.166Z,44.32
2022-08-09T23:04:26.249Z,44.18
2022-08-09T23:07:13.933Z,44.35
2022-08-09T23:09:47.152Z,44.23
2022-08-09T23:12:16.656Z,44.17
2022-08-09T23:14:44.748Z,44.28
2022-08-09T23:17:13.101Z,44.31
2022-08-09T23:20:00.909Z,44.39
2022-08-09T23:22:29.384Z,44.34
2022-08-09T23:24:57.515Z,44.28
2022-08-09T23:27:27.114Z,44.24
2022-08-09T23:29:55.231Z,44.22
2022-08-09T23:32:23.348Z,43.94
2022-08-09T23:34:51.476Z,44.06
2022-08-09T23:37:21.398Z,44.24
2022-08-09T23:39:50.978Z,44.26
2022-08-09T23:42:19.185Z,44.18
2022-08-09T23:44:48.691Z,44.13
2022-08-09T23:47:16.801Z,43.93
2022-08-09T23:49:44.895Z,44.06
2022-08-09T23:52:12.969Z,44.06
2022-08-09T23:54:45.435Z,44.03
2022-08-09T23:57:14.477Z,43.70
